Aden, Yemen
Current Conditions -  °F | °C
As of 7:00 PM on Monday 26 Jan 2015 (Local Time) from OYAA Reporting Station
Scattered Clouds Scattered Clouds  
Wind Chill: 79°   Ceiling: Unl
Heat Index: 80°   Visibility: 6mi
Dew Point: 61°   Wind: 13mph
Humidity: 54%   Direction: 120°ESE
Pressure: 30.06"   Gusts: NA
Location:  12.79°N, 45.03°E
Report Text: OYAA 261600Z 12011KT 9999 SCT018 26/16 Q1018
Loading
Personal Weather Stations






























Interactive Weather Map New forecast layout! Learn more

10-Day Weather Forecast

Advertisements
Track Severe Weather on mobile